Nixon, TX (78140)

1:38 AM CDT on October 31, 2014 (GMT -0500)
Cowey Road Ranch | Change Station
CLOSE
Current Station
Personal Weather Station
Location: Nixon, TX
Elevation: 528 ft
Nearby Weather Stations

Elev 528 ft 29.39 °N, 97.84 °W | Updated 10 minutes ago

Partly Cloudy
Partly Cloudy
65.1 °F
Feels Like 65.1 °F
N
0.0
Wind Variable Wind from WNW
Gusts 0.0 mph

Today
High -- | Low -- °F
--% Chance of Precip.
Yesterday
High -- | Low -- °F
Precip. -- in
7:43 AM 6:45 PM
First Quarter, 52% visible
Pressure 30.10 in
Visibility 5.0 miles
Clouds Scattered Clouds 4200 ft
Mostly Cloudy 6000 ft
Mostly Cloudy 12000 ft
Dew Point 62 °F
Humidity 89%
Rainfall 0.00 in
Snow Depth Not available.
UV 0 out of 12
Pollen 4.70 out of 12
Air Quality Not available.
Flu Activity Not available.
METAR KT20 310615Z AUTO 05008KT 5SM +RA SCT042 BKN060 BKN120 19/16 A3010 RMK AO2 LTG DSNT NW P0004 T01860161

More Conditions Fewer Conditions

Pressure 30.10 in
Visibility 5.0 miles
Clouds Scattered Clouds 4200 ft
Mostly Cloudy 6000 ft
Mostly Cloudy 12000 ft
Dew Point 62 °F
Humidity 89%
Rainfall 0.00 in
Snow Depth Not available.
UV 0 out of 12
Pollen 4.70 out of 12
Air Quality Not available.
Flu Activity Not available.
METAR KT20 310615Z AUTO 05008KT 5SM +RA SCT042 BKN060 BKN120 19/16 A3010 RMK AO2 LTG DSNT NW P0004 T01860161

More Conditions Fewer Conditions

Nowcast | as of 12:42 am CDT on October 31, 2014

Through 3 am...showers and thunderstorms along a Flatonia to San Marcos to Johnson City to Mason to Junction to Sonora line and along a Caldwell to Lampasas to San Saba line will move south at 15 mph. Rainfall amounts up to one inch can be expected. Wind gusts up to 30 mph are possible with the stronger storms. Elsewhere...isolated showers can be expected with rainfall amounts less than one tenth inch.

×

10-Day Weather Forecast

Almanac

Astronomy

Oct. 31, 2014 Rise Set
Actual Time
Civil Twilight
Nautical Twilight
Astronomical Twilight
Moon
Length of Visible Light
Length of Day
Tomorrow will be .
, % of the Moon is Illuminated

Today's Extremes

State Highs State Lows

Community

WunderPhotos

Upload Photos

1,766,571 photos uploaded!

WunderBlogs® & News

Nearby

Air Quality

  Air Quality AQ Index Pollutant
Not available.

Snow Depth

Station Depth Elevation

Earthquake Activity

City Distance Mag. Time & Date
Minimum magnitude displayed is 2.5.

Coastal Water Temperatures

Place Temperature

Nearby Weather Stations